Ride Results

The Boubyjan Bash (08-06-1997)
Ride distance: 80.0 km

Outcomes - The Boubyjan Bash (08-06-1997)
Division No. of Entries Retired / DNE Completed Withdrawn Ineligible V/O Percentage Completed
HW 5 - 5 - - - 100.00%
MW 24 - 21 - - 3 87.50%
LW 17 - 15 - - 2 88.24%
JN 5 - 5 - - - 100.00%
Totals 51 - 46 - - 5 90.20%
Results - The Boubyjan Bash (08-06-1997)
No. Rider Horse Place Time Leg Speeds Total
Km/Hr
H/R bpm
Heavyweight
20 Francis Haack Jasper 1 (BC) 5:03:00 20.3, 12.9 15.84 34, 37, 48 (Avg:42)
7 Jack Johnson Piabun Budjar 1 5:03:00 20.3, 12.9 15.84 32, 40, 55 (Avg:47)
36 Toby Crockett Bay Emperor 3 5:47:00 18.4, 11.0 13.83 39, 41, 43 (Avg:42)
40 Ken Warne Tanah Merah Neptune 4 7:08:00 15.5, 8.7 11.21 31, 36, 43 (Avg:39)
12 Dennis P Smith Indian Diplomat 5 8:13:00 12.3, 8.0 9.74 45, 46, 42 (Avg:44)
Middleweight
49 Rod Strahan Shardell Prince Conrad 1 (BC) 4:53:00 18.1, 14.9 16.38 41, 43, 47 (Avg:45)
13 Marlies Smith Marywood Rememdance 2 4:59:00 20.3, 13.2 16.05 33, 35, 47 (Avg:41)
1 Wilma Hopwood Ashraf Leah 3 5:00:00 20.6, 13.0 16.00 34, 34, 47 (Avg:40)
15 Louise McCormack Grey Rose 4 5:26:00 19.8, 11.7 14.72 33, 40, 41 (Avg:40)
34 Janet Gentry Sundust Midnite 5 5:47:00 18.0, 11.2 13.83 33, 45, 44 (Avg:44)
6 Kerrie McAuliffe Caramea Markov 5 5:47:00 18.3, 11.1 13.83 37, 41, 48 (Avg:44)
41 Peter Williams Elwell Silver Spinx 7 6:03:00 17.7, 10.5 13.22 28, 37, 42 (Avg:39)
27 Virginia Beard Hillbrae Dancer 8 7:08:00 13.8, 9.4 11.21 38, 43, 53 (Avg:48)
42 Wendy Mathews Ducarl Magic Destyne 8 7:08:00 13.9, 9.3 11.21 33, 35, 51 (Avg:43)
26 Jackie Swan Longrun Keegan 8 7:08:00 15.1, 8.8 11.21 34, 39, 50 (Avg:44)
22 Robin Young Brecon Paraway 8 7:08:00 15.1, 8.8 11.21 34, 40, 46 (Avg:43)
23 Peter Pike Montoro Myko 12 7:15:00 15.7, 8.4 11.03 37, 42, 46 (Avg:44)
47 Phillip Strahan Cedardell Zechariah 13 7:20:00 15.9, 8.2 10.91 40, 42, 44 (Avg:43)
17 Karen Edridge Oakbank Tanixy 14 7:50:00 18.3, 7.0 10.21 29, 32, 39 (Avg:35)
16 Bronwyn James Lady Anna-Maree 14 7:50:00 18.3, 7.0 10.21 33, 35, 37 (Avg:36)
29 Dianne Sullivan Watersleigh Jewel 16 7:51:00 13.5, 8.1 10.19 29, 36, 42 (Avg:39)
30 Peter Waldron Rivalyn Manique 16 7:51:00 13.5, 8.1 10.19 32, 38, 41 (Avg:39)
21 Teena Cashin Liscannor Coppelia 18 7:54:00 18.3, 6.9 10.13 39, 33, 40 (Avg:36)
10 Glenn Carter Yenvale Hamalete 19 7:56:00 12.7, 8.3 10.08 37, 43, 51 (Avg:47)
9 Lee Kain Campbell 20 8:13:00 12.3, 8.0 9.74 35, 36, 45 (Avg:40)
38 Anne Barlow Hillbrae Fred 21 8:16:00 12.1, 8.0 9.68 33, 39, 46 (Avg:42)
37 Sue Crockett Tallaroon Desert Dancer Heart Rate L2 0:00:00 18.4, 11.0 - 37, 39, 68 (Avg:53)
50 Marg Lundberg Nazooli G.a. Lame L2 0:00:00 14.2, 8.9 - 32, 39, 39 (Avg:39)
11 Heather Crack Ramadan Primadonna Lame P/R 0:00:00 - - 27
Lightweight
44 Kylie Roth Sangria Ibn Inca 1 4:56:00 20.6, 13.3 16.22 31, 39, 55 (Avg:47)
28 Sue Sutcliffe Burnam Rhikky 2 (BC) 5:26:00 19.9, 11.6 14.72 33, 37, 35 (Avg:36)
48 Sue Ivers Scotia Park Drewan 3 5:47:00 18.4, 11.0 13.83 35, 38, 59 (Avg:48)
19 Lynn Annetts Keela Tashunka Witko 4 6:05:00 20.3, 9.7 13.15 30, 38, 49 (Avg:43)
39 Jeanna Maher Jamila Mist 5 7:08:00 15.5, 8.7 11.21 35, 36, 42 (Avg:39)
35 Tricia Sferco Hillbrae Nikolete 5 7:08:00 13.8, 9.4 11.21 30, 45, 52 (Avg:48)
24 Michelle Payne E Dowen Shardom 7 7:15:00 15.7, 8.4 11.03 38, 39, 51 (Avg:45)
25 Catrina Samson Satuul 7 7:15:00 15.7, 8.4 11.03 36, 43, 55 (Avg:49)
33 Jenny Noffke Craigdarroch Benbecula 9 7:18:00 14.2, 8.9 10.96 34, 39, 48 (Avg:43)
8 Elizabeth Collins Same As 10 7:20:00 13.1, 9.3 10.91 38, 43, 44 (Avg:43)
14 Deborah Hargie Santana Park Samson 11 7:55:00 12.7, 8.3 10.11 34, 35, 46 (Avg:40)
45 Stella Wheildon Yimkin Badahn 11 7:55:00 18.1, 6.9 10.11 31, 38, 42 (Avg:40)
32 Cathy Herve Hilbrae Maxine 13 8:16:00 12.1, 8.0 9.68 32, 43, 37 (Avg:40)
4 Madonna Faux Saxonvale Hotshot 14 8:17:00 14.2, 7.3 9.66 35, 38, 41 (Avg:39)
5 Leita Gentner Marengo Buznin 14 8:17:00 14.2, 7.3 9.66 31, 33, 37 (Avg:35)
31 Donna Nicolas Flying Sterling Banner Lame L2 0:00:00 12.1, 7.9 - 35, 44, 53 (Avg:48)
51 Coralie Frischkorn Cedardell Cleo Lame P/R 0:00:00 - - 32
Junior
3 Ben Noller Race The Wind 1 4:56:00 18.4, 14.4 16.22 33, 38, 49 (Avg:43)
2 Rachel Trevarthen Simeon Que 1 4:56:00 18.4, 14.4 16.22 30, 37, 43 (Avg:40)
46 Michael Shaw Birri Van Nina 3 (BC) 4:56:01 20.6, 13.3 16.22 31, 42, 43 (Avg:42)
43 Laura Dowling Mariko 4 5:46:00 18.4, 11.1 13.87 29, 42, 47 (Avg:44)
18 Lizzie Turner Alrene 5 6:05:00 20.3, 9.7 13.15 34, 41, 51 (Avg:46)